Terminal Aerodrome Forecast
Issued by NWS

Home | Current Version | Previous Version | Text Only | Print | Product List | Glossary On
Versions: 1 2 3 4 5 6 7 8 9 10 11 12 13 14
000
FTUS41 KCAR 311120
TAFHUL
TAF
KHUL 311120Z 3112/0112 23007KT P6SM BKN090
     FM311500 24012G20KT P6SM BKN050
     FM010000 32006KT P6SM SCT250=

USA.gov is the U.S. government's official web portal to all federal, state and local government web resources and services.